Time;durP1;ratioP1;P1;durP2;ratioP2;P2;SDS_P1;SDS_P2;PMS_P1;PMS_P2;Temp;Humidity;BMP_temperature;BMP_pressure;BME280_temperature;BME280_humidity;BME280_pressure;Samples;Min_cycle;Max_cycle;Signal;HPM_P1;HPM_P2
2024/01/20 00:00:58;;;;;;;3.77;2.47;;;;;;;0.54;100.00;101366.09;7354429;19;20266;-36
2024/01/20 00:03:28;;;;;;;4.65;1.98;;;;;;;0.59;100.00;101366.50;7331352;19;20424;-39
2024/01/20 00:05:57;;;;;;;4.40;1.77;;;;;;;0.61;100.00;101354.84;7354079;19;20559;-37
2024/01/20 00:08:30;;;;;;;5.20;2.13;;;;;;;0.59;100.00;101358.88;7333065;19;21042;-40
2024/01/20 00:10:59;;;;;;;7.95;2.47;;;;;;;0.62;100.00;101360.06;7354306;19;20201;-37
2024/01/20 00:13:29;;;;;;;10.33;2.73;;;;;;;0.62;100.00;101359.19;7333250;19;20245;-37
2024/01/20 00:15:59;;;;;;;9.10;3.37;;;;;;;0.64;100.00;101361.09;7354237;19;20415;-37
2024/01/20 00:18:29;;;;;;;6.43;1.27;;;;;;;0.65;100.00;101357.81;7332973;19;20987;-39
2024/01/20 00:20:59;;;;;;;3.03;1.60;;;;;;;0.61;100.00;101363.34;7354430;19;20577;-39
2024/01/20 00:23:32;;;;;;;2.80;1.67;;;;;;;0.61;100.00;101347.25;7333443;19;20962;-39
2024/01/20 00:26:01;;;;;;;2.87;1.43;;;;;;;0.65;100.00;101364.53;7353805;19;20463;-37
2024/01/20 00:28:31;;;;;;;3.67;2.03;;;;;;;0.69;100.00;101358.06;7333054;19;20438;-37
2024/01/20 00:31:01;;;;;;;9.03;2.83;;;;;;;0.68;100.00;101359.75;7353365;19;20414;-37
2024/01/20 00:33:31;;;;;;;6.20;1.80;;;;;;;0.72;100.00;101356.69;7333461;19;20452;-38
2024/01/20 00:36:01;;;;;;;2.83;1.63;;;;;;;0.74;100.00;101360.28;7350521;19;20398;-37
2024/01/20 00:38:33;;;;;;;8.83;3.20;;;;;;;0.75;100.00;101378.97;7331854;19;20919;-37
2024/01/20 00:41:03;;;;;;;3.42;1.85;;;;;;;0.73;100.00;101385.56;7354328;19;20402;-37
2024/01/20 00:43:32;;;;;;;2.97;1.57;;;;;;;0.70;100.00;101385.25;7329797;19;20198;-38
2024/01/20 00:46:02;;;;;;;6.13;1.70;;;;;;;0.72;100.00;101371.06;7353089;19;20499;-37
2024/01/20 00:48:32;;;;;;;5.20;2.50;;;;;;;0.75;100.00;101384.03;7332259;19;20434;-36
2024/01/20 00:51:01;;;;;;;15.07;3.10;;;;;;;0.75;100.00;101381.50;7351157;19;20429;-39
2024/01/20 00:53:34;;;;;;;7.43;1.80;;;;;;;0.70;100.00;101383.63;7328994;19;20489;-37
2024/01/20 00:56:03;;;;;;;4.40;1.40;;;;;;;0.72;100.00;101396.47;7350117;19;20233;-37
2024/01/20 00:58:33;;;;;;;5.90;2.33;;;;;;;0.71;100.00;101385.41;7328619;19;20391;-39
2024/01/20 01:01:02;;;;;;;9.73;2.17;;;;;;;0.72;100.00;101396.47;7350248;19;20966;-37
2024/01/20 01:03:32;;;;;;;4.53;1.15;;;;;;;0.74;100.00;101389.88;7324948;19;20753;-37
2024/01/20 01:06:02;;;;;;;5.83;2.47;;;;;;;0.73;100.00;101404.25;7349495;19;20198;-39
2024/01/20 01:08:34;;;;;;;9.67;1.90;;;;;;;0.69;100.00;101394.53;7328685;19;20767;-39
2024/01/20 01:11:04;;;;;;;5.33;1.73;;;;;;;0.71;100.00;101395.56;7350370;19;20403;-37
2024/01/20 01:13:36;;;;;;;2.27;1.23;;;;;;;0.65;100.00;101410.25;7328574;19;20400;-37
2024/01/20 01:16:07;;;;;;;17.77;3.17;;;;;;;0.67;100.00;101403.69;7349547;19;20399;-37
2024/01/20 01:18:36;;;;;;;17.03;4.40;;;;;;;0.70;100.00;101413.19;7328505;19;20198;-36
2024/01/20 01:21:07;;;;;;;4.53;2.53;;;;;;;0.60;100.00;101397.13;7351716;19;21318;-37
2024/01/20 01:23:39;;;;;;;2.80;1.43;;;;;;;0.60;100.00;101416.53;7328240;19;20965;-37
2024/01/20 01:26:09;;;;;;;6.30;2.33;;;;;;;0.59;100.00;101430.91;7349504;19;20482;-37
2024/01/20 01:28:39;;;;;;;6.07;1.97;;;;;;;0.60;100.00;101425.06;7328656;19;20201;-37
2024/01/20 01:31:09;;;;;;;8.40;2.13;;;;;;;0.59;100.00;101424.91;7349615;19;20400;-36
2024/01/20 01:33:38;;;;;;;3.33;1.80;;;;;;;0.58;100.00;101443.44;7331517;19;20442;-39
2024/01/20 01:36:09;;;;;;;4.13;1.63;;;;;;;0.56;100.00;101437.34;7349375;19;20231;-38
2024/01/20 01:38:41;;;;;;;4.93;2.60;;;;;;;0.58;100.00;101430.75;7328109;19;20407;-38
2024/01/20 01:41:11;;;;;;;11.40;1.85;;;;;;;0.59;100.00;101435.97;7349776;19;20408;-36
2024/01/20 01:43:40;;;;;;;5.63;2.80;;;;;;;0.56;100.00;101440.75;7328080;19;20888;-36
2024/01/20 01:46:11;;;;;;;2.50;1.70;;;;;;;0.55;100.00;101451.69;7349309;19;20198;-40
2024/01/20 01:48:40;;;;;;;9.88;1.85;;;;;;;0.50;100.00;101441.09;7327859;19;20420;-41
2024/01/20 01:51:12;;;;;;;5.88;2.15;;;;;;;0.51;100.00;101447.97;7349951;19;20198;-37
2024/01/20 01:53:45;;;;;;;3.03;1.20;;;;;;;0.46;100.00;101453.38;7328729;19;21005;-37
2024/01/20 01:56:16;;;;;;;3.73;1.83;;;;;;;0.50;100.00;101453.78;7349198;19;20404;-38
2024/01/20 01:58:45;;;;;;;9.37;2.30;;;;;;;0.43;100.00;101453.06;7327241;19;20498;-37
2024/01/20 02:01:15;;;;;;;5.83;2.53;;;;;;;0.41;100.00;101452.91;7348323;19;20406;-37
2024/01/20 02:03:45;;;;;;;10.83;3.07;;;;;;;0.37;100.00;101458.47;7325136;19;20392;-37
2024/01/20 02:06:14;;;;;;;7.72;3.28;;;;;;;0.34;100.00;101448.94;7345106;19;20423;-39
2024/01/20 02:08:47;;;;;;;3.42;1.92;;;;;;;0.33;100.00;101467.44;7330506;19;20214;-37
2024/01/20 02:11:17;;;;;;;4.65;2.47;;;;;;;0.32;100.00;101457.16;7352078;19;20198;-37
2024/01/20 02:13:47;;;;;;;6.93;2.35;;;;;;;0.29;100.00;101457.75;7329898;19;20202;-38
2024/01/20 02:16:17;;;;;;;6.18;3.60;;;;;;;0.24;100.00;101469.09;7350966;19;20224;-37
2024/01/20 02:18:46;;;;;;;6.57;1.92;;;;;;;0.27;100.00;101461.78;7329612;19;20210;-39
2024/01/20 02:21:16;;;;;;;4.78;2.33;;;;;;;0.21;100.00;101471.38;7351415;19;20190;-38
2024/01/20 02:23:49;;;;;;;7.18;2.83;;;;;;;0.21;100.00;101467.16;7330093;19;20196;-37
2024/01/20 02:26:19;;;;;;;11.83;3.37;;;;;;;0.22;100.00;101474.06;7350595;19;20671;-37
2024/01/20 02:28:49;;;;;;;8.40;2.70;;;;;;;0.19;100.00;101488.06;7330124;19;20430;-38
2024/01/20 02:31:18;;;;;;;12.40;4.97;;;;;;;0.17;100.00;101485.41;7351582;19;20196;-40
2024/01/20 02:33:48;;;;;;;14.40;3.38;;;;;;;0.15;100.00;101479.28;7330743;19;20194;-37
2024/01/20 02:36:18;;;;;;;6.47;3.03;;;;;;;0.11;100.00;101478.09;7349649;19;20190;-40
2024/01/20 02:38:51;;;;;;;6.15;3.67;;;;;;;0.12;100.00;101477.34;7329029;19;20208;-37
2024/01/20 02:41:21;;;;;;;9.48;4.00;;;;;;;0.10;100.00;101472.88;7351317;19;20285;-37
2024/01/20 02:43:51;;;;;;;5.30;3.20;;;;;;;0.11;100.00;101478.09;7329044;19;20937;-37
2024/01/20 02:46:20;;;;;;;5.70;3.30;;;;;;;0.19;100.00;101476.28;7350179;19;20274;-37
2024/01/20 02:48:50;;;;;;;8.07;2.13;;;;;;;0.18;100.00;101478.69;7329330;19;20469;-35
2024/01/20 02:51:20;;;;;;;12.43;3.95;;;;;;;0.18;100.00;101476.13;7350994;19;20285;-36
2024/01/20 02:53:52;;;;;;;5.55;2.58;;;;;;;0.18;100.00;101484.66;7329348;19;20198;-38
2024/01/20 02:56:22;;;;;;;4.40;2.45;;;;;;;0.16;100.00;101480.19;7349541;19;20256;-37
2024/01/20 02:58:52;;;;;;;4.63;2.80;;;;;;;0.20;100.00;101473.00;7327612;19;20350;-37
2024/01/20 03:01:22;;;;;;;6.50;2.78;;;;;;;0.22;100.00;101471.53;7350306;19;20476;-36
2024/01/20 03:03:52;;;;;;;8.25;3.70;;;;;;;0.19;100.00;101485.53;7326884;19;20195;-37
2024/01/20 03:06:22;;;;;;;4.53;3.00;;;;;;;0.29;100.00;101488.22;7348880;19;20658;-35
2024/01/20 03:08:54;;;;;;;14.07;3.93;;;;;;;0.27;100.00;101497.34;7349539;19;20204;-37
2024/01/20 03:11:24;;;;;;;12.25;5.38;;;;;;;0.27;100.00;101489.72;7328003;19;20419;-37
2024/01/20 03:13:54;;;;;;;7.15;3.10;;;;;;;0.32;100.00;101478.38;7346696;19;20216;-36
2024/01/20 03:16:23;;;;;;;8.40;3.75;;;;;;;0.30;100.00;101496.75;7331098;19;20565;-36
2024/01/20 03:18:53;;;;;;;3.05;2.25;;;;;;;0.29;100.00;101505.09;7349536;19;20199;-38
2024/01/20 03:21:22;;;;;;;14.07;5.00;;;;;;;0.28;100.00;101486.44;7340600;19;20210;-37
2024/01/20 03:23:55;;;;;;;11.52;4.07;;;;;;;0.33;100.00;101491.94;7350355;19;20207;-39
2024/01/20 03:26:25;;;;;;;8.55;3.55;;;;;;;0.25;100.00;101491.19;7326437;19;20198;-43
2024/01/20 03:28:55;;;;;;;15.02;4.45;;;;;;;0.28;100.00;101494.03;7348122;19;20209;-37
2024/01/20 03:31:25;;;;;;;14.27;3.88;;;;;;;0.26;100.00;101506.59;7327154;19;20223;-37
2024/01/20 03:33:54;;;;;;;15.90;5.38;;;;;;;0.23;100.00;101500.31;7348102;19;20215;-37
2024/01/20 03:36:24;;;;;;;8.25;4.25;;;;;;;0.17;100.00;101504.81;7326651;19;20217;-37
2024/01/20 03:38:56;;;;;;;16.85;4.40;;;;;;;0.12;100.00;101496.75;7346938;19;20689;-39
2024/01/20 03:41:26;;;;;;;10.68;4.60;;;;;;;0.10;100.00;101504.22;7327420;19;20194;-39
2024/01/20 03:43:56;;;;;;;18.50;6.80;;;;;;;0.09;100.00;101501.53;7347380;19;20263;-37
2024/01/20 03:46:25;;;;;;;14.13;6.43;;;;;;;0.03;100.00;101501.84;7326165;19;20663;-37
2024/01/20 03:48:55;;;;;;;9.07;4.17;;;;;;;0.00;100.00;101501.56;7347095;19;20222;-37
2024/01/20 03:51:26;;;;;;;6.05;3.33;;;;;;;-0.02;100.00;101497.97;7326697;19;20431;-37
2024/01/20 03:53:59;;;;;;;4.88;3.25;;;;;;;0.02;100.00;101510.22;7347717;19;20229;-37
2024/01/20 03:56:29;;;;;;;5.90;3.90;;;;;;;0.03;100.00;101506.94;7325762;19;20198;-37
2024/01/20 03:58:58;;;;;;;13.18;5.10;;;;;;;-0.01;100.00;101520.06;7346884;19;20447;-39
2024/01/20 04:01:28;;;;;;;8.68;3.30;;;;;;;-0.04;100.00;101523.19;7325915;19;20198;-41
2024/01/20 04:03:57;;;;;;;15.35;5.35;;;;;;;-0.03;100.00;101536.78;7345875;19;20194;-38
2024/01/20 04:06:27;;;;;;;7.13;3.55;;;;;;;-0.03;100.00;101539.31;7326055;19;20190;-37
2024/01/20 04:09:00;;;;;;;17.08;6.50;;;;;;;0.00;100.00;101544.72;7347024;19;20198;-36
2024/01/20 04:11:30;;;;;;;14.75;6.25;;;;;;;0.02;100.00;101538.13;7326137;19;20194;-38
2024/01/20 04:13:59;;;;;;;18.15;2.83;;;;;;;-0.04;100.00;101556.16;7346858;19;20273;-36
2024/01/20 04:16:29;;;;;;;13.15;4.93;;;;;;;-0.08;100.00;101553.19;7325414;19;21048;-37
2024/01/20 04:18:58;;;;;;;16.05;5.75;;;;;;;-0.18;100.00;101544.69;7346904;19;20204;-38
2024/01/20 04:21:28;;;;;;;16.67;5.90;;;;;;;-0.20;100.00;101548.72;7326233;19;20194;-38
2024/01/20 04:24:00;;;;;;;19.67;8.20;;;;;;;-0.25;100.00;101555.00;7346847;19;20735;-39
2024/01/20 04:26:30;;;;;;;21.02;9.05;;;;;;;-0.29;100.00;101556.31;7331537;19;20296;-37
2024/01/20 04:29:00;;;;;;;16.40;6.70;;;;;;;-0.30;100.00;101561.25;7353638;19;20210;-37
2024/01/20 04:31:32;;;;;;;12.23;6.30;;;;;;;-0.32;100.00;101556.03;7333253;19;20191;-39
2024/01/20 04:34:01;;;;;;;9.02;4.72;;;;;;;-0.37;100.00;101561.41;7353654;19;20215;-36
2024/01/20 04:36:31;;;;;;;5.30;3.85;;;;;;;-0.38;100.00;101567.19;7331751;19;20194;-37
2024/01/20 04:39:03;;;;;;;20.90;9.48;;;;;;;-0.31;100.00;101567.06;7353756;19;20229;-37
2024/01/20 04:41:33;;;;;;;12.45;6.75;;;;;;;-0.35;100.00;101554.81;7332942;19;20190;-39
2024/01/20 04:44:03;;;;;;;11.48;6.07;;;;;;;-0.29;100.00;101578.25;7353588;19;20697;-39
2024/01/20 04:46:33;;;;;;;15.02;5.70;;;;;;;-0.28;100.00;101564.81;7332265;19;20193;-37
2024/01/20 04:49:02;;;;;;;21.27;9.68;;;;;;;-0.23;100.00;101567.81;7352480;19;20201;-39
2024/01/20 04:51:32;;;;;;;10.13;4.68;;;;;;;-0.22;100.00;101572.13;7332222;19;20198;-37
2024/01/20 04:54:04;;;;;;;17.23;7.63;;;;;;;-0.23;100.00;101566.19;7353809;19;20661;-36
2024/01/20 04:56:34;;;;;;;15.65;7.32;;;;;;;-0.28;100.00;101574.97;7331587;19;20235;-37
2024/01/20 04:59:04;;;;;;;6.28;4.03;;;;;;;-0.27;100.00;101571.69;7352697;19;20198;-38
2024/01/20 05:01:33;;;;;;;21.27;10.05;;;;;;;-0.25;100.00;101587.97;7331628;19;20629;-38
2024/01/20 05:04:03;;;;;;;18.70;7.93;;;;;;;-0.24;100.00;101594.84;7351942;19;20830;-38
2024/01/20 05:06:33;;;;;;;20.25;9.20;;;;;;;-0.21;100.00;101591.72;7331281;19;20693;-43
2024/01/20 05:09:06;;;;;;;16.40;8.98;;;;;;;-0.22;100.00;101603.47;7352320;19;20280;-37
2024/01/20 05:11:35;;;;;;;19.30;8.10;;;;;;;-0.19;100.00;101601.25;7332035;19;20193;-37
2024/01/20 05:14:05;;;;;;;11.75;6.75;;;;;;;-0.22;100.00;101600.94;7352926;19;20190;-38
2024/01/20 05:16:34;;;;;;;14.60;7.38;;;;;;;-0.22;100.00;101597.50;7330974;19;20285;-37
2024/01/20 05:19:04;;;;;;;17.20;8.65;;;;;;;-0.19;100.00;101600.34;7351480;19;20214;-37
2024/01/20 05:21:34;;;;;;;16.08;7.47;;;;;;;-0.18;100.00;101602.13;7331957;19;20742;-36
2024/01/20 05:24:06;;;;;;;24.08;8.45;;;;;;;-0.20;100.00;101601.97;7352182;19;20662;-36
2024/01/20 05:26:36;;;;;;;14.10;5.75;;;;;;;-0.21;100.00;101600.19;7330609;19;20212;-36
2024/01/20 05:29:06;;;;;;;21.00;8.65;;;;;;;-0.19;100.00;101597.81;7351928;19;20202;-36
2024/01/20 05:31:35;;;;;;;15.13;7.97;;;;;;;-0.23;100.00;101608.41;7331258;19;20237;-36
2024/01/20 05:34:05;;;;;;;15.52;7.30;;;;;;;-0.25;100.00;101608.28;7352038;19;20208;-37
2024/01/20 05:36:35;;;;;;;24.60;8.93;;;;;;;-0.29;100.00;101603.63;7329181;19;20198;-36
2024/01/20 05:39:07;;;;;;;8.48;5.57;;;;;;;-0.34;100.00;101620.94;7350213;19;20306;-37
2024/01/20 05:41:37;;;;;;;16.85;5.95;;;;;;;-0.33;100.00;101616.72;7330774;19;20203;-37
2024/01/20 05:44:06;;;;;;;21.70;10.35;;;;;;;-0.32;100.00;101611.81;7352712;19;20200;-37
2024/01/20 05:46:36;;;;;;;23.48;9.30;;;;;;;-0.35;100.00;101620.78;7330698;19;20194;-36
2024/01/20 05:49:06;;;;;;;13.82;7.93;;;;;;;-0.34;100.00;101614.94;7350790;19;20198;-38
2024/01/20 05:51:35;;;;;;;25.95;11.93;;;;;;;-0.33;100.00;101615.09;7330723;19;20243;-36
2024/01/20 05:54:08;;;;;;;26.73;12.90;;;;;;;-0.34;100.00;101614.94;7351639;19;20198;-36
2024/01/20 05:56:38;;;;;;;11.82;6.95;;;;;;;-0.38;100.00;101612.84;7330735;19;20230;-36
2024/01/20 05:59:07;;;;;;;32.95;12.90;;;;;;;-0.43;100.00;101614.94;7351331;19;20202;-37
2024/01/20 06:01:37;;;;;;;18.35;10.05;;;;;;;-0.39;100.00;101624.63;7330294;19;20215;-38
2024/01/20 06:04:07;;;;;;;9.27;5.25;;;;;;;-0.44;100.00;101630.88;7349715;19;20259;-37
2024/01/20 06:06:36;;;;;;;22.88;6.95;;;;;;;-0.43;100.00;101628.50;7329598;19;20870;-36
2024/01/20 06:09:09;;;;;;;19.10;9.70;;;;;;;-0.43;100.00;101620.91;7350556;19;20194;-37
2024/01/20 06:11:38;;;;;;;20.58;10.90;;;;;;;-0.39;100.00;101627.19;7330724;19;20191;-37
2024/01/20 06:14:08;;;;;;;16.85;8.13;;;;;;;-0.37;100.00;101625.69;7351311;19;20198;-37
2024/01/20 06:16:38;;;;;;;12.15;6.43;;;;;;;-0.39;100.00;101636.41;7328861;19;20537;-37
2024/01/20 06:19:08;;;;;;;10.05;6.50;;;;;;;-0.36;100.00;101626.59;7349932;19;20210;-37
2024/01/20 06:21:38;;;;;;;17.00;8.45;;;;;;;-0.41;100.00;101624.47;7330342;19;20213;-39
2024/01/20 06:24:10;;;;;;;13.73;6.95;;;;;;;-0.37;100.00;101634.94;7350672;19;20204;-38
2024/01/20 06:26:40;;;;;;;21.92;11.95;;;;;;;-0.37;100.00;101624.81;7329002;19;20538;-38
2024/01/20 06:29:11;;;;;;;16.48;8.05;;;;;;;-0.37;100.00;101642.56;7350060;19;20728;-37
2024/01/20 06:31:41;;;;;;;17.27;9.63;;;;;;;-0.41;100.00;101643.88;7329907;19;20867;-39
2024/01/20 06:34:10;;;;;;;10.75;5.95;;;;;;;-0.38;100.00;101643.28;7350576;19;20257;-37
2024/01/20 06:36:40;;;;;;;18.73;9.13;;;;;;;-0.40;100.00;101638.06;7329035;19;20223;-37
2024/01/20 06:39:12;;;;;;;9.23;6.68;;;;;;;-0.38;100.00;101639.09;7349958;19;20201;-37
2024/01/20 06:41:45;;;;;;;17.85;6.53;;;;;;;-0.39;100.00;101656.69;7329648;19;20237;-39
2024/01/20 06:44:14;;;;;;;23.70;11.07;;;;;;;-0.41;100.00;101649.84;7350441;19;20190;-38
2024/01/20 06:46:44;;;;;;;19.80;8.27;;;;;;;-0.41;100.00;101648.97;7329361;19;20207;-37
2024/01/20 06:49:14;;;;;;;12.07;6.20;;;;;;;-0.42;100.00;101653.13;7349020;19;20271;-39
2024/01/20 06:51:44;;;;;;;10.30;4.32;;;;;;;-0.45;100.00;101647.72;7329708;19;20728;-42
2024/01/20 06:54:17;;;;;;;22.40;9.13;;;;;;;-0.48;100.00;101649.97;7349864;19;20198;-37
2024/01/20 06:56:46;;;;;;;24.77;11.13;;;;;;;-0.52;100.00;101655.47;7328444;19;20226;-37
2024/01/20 06:59:16;;;;;;;22.50;10.73;;;;;;;-0.59;100.00;101658.13;7349506;19;20278;-37
2024/01/20 07:01:45;;;;;;;16.45;7.97;;;;;;;-0.60;100.00;101656.34;7329689;19;20667;-37
2024/01/20 07:04:16;;;;;;;27.45;9.82;;;;;;;-0.62;100.00;101652.75;7349366;19;20201;-37
2024/01/20 07:06:45;;;;;;;30.48;10.60;;;;;;;-0.66;100.00;101650.66;7328099;19;20203;-39
2024/01/20 07:09:18;;;;;;;17.45;7.85;;;;;;;-0.73;100.00;101652.56;7349434;19;20198;-36
2024/01/20 07:11:53;;;;;;;12.68;6.93;;;;;;;-0.80;100.00;101666.97;7329918;19;20199;-39
2024/01/20 07:14:23;;;;;;;17.95;7.03;;;;;;;-0.85;100.00;101648.78;7340323;19;20193;-37
2024/01/20 07:16:53;;;;;;;23.83;6.47;;;;;;;-0.85;100.00;101659.81;7350084;19;20194;-36
2024/01/20 07:19:22;;;;;;;18.02;9.50;;;;;;;-0.90;100.00;101663.53;7344816;19;20637;-35
2024/01/20 07:21:52;;;;;;;17.10;9.10;;;;;;;-0.91;100.00;101683.63;7349967;19;20682;-40
2024/01/20 07:24:24;;;;;;;18.17;7.95;;;;;;;-0.93;100.00;101685.13;7348948;19;20202;-36
2024/01/20 07:26:54;;;;;;;15.30;6.25;;;;;;;-0.92;100.00;101687.78;7326963;19;20198;-36
2024/01/20 07:29:25;;;;;;;15.88;6.93;;;;;;;-0.95;100.00;101695.09;7330891;19;20202;-39
2024/01/20 07:31:55;;;;;;;20.92;9.18;;;;;;;-0.93;100.00;101680.03;7349908;19;20667;-39
2024/01/20 07:34:25;;;;;;;21.48;10.25;;;;;;;-0.98;100.00;101693.13;7327016;19;20702;-36
2024/01/20 07:36:54;;;;;;;14.10;6.85;;;;;;;-0.94;100.00;101693.47;7348955;19;20194;-37
2024/01/20 07:39:27;;;;;;;10.13;5.45;;;;;;;-0.97;100.00;101710.13;7329208;19;20206;-36
2024/01/20 07:41:56;;;;;;;14.15;7.75;;;;;;;-0.90;100.00;101686.31;7348493;19;20211;-37
2024/01/20 07:44:26;;;;;;;25.63;13.85;;;;;;;-0.87;100.00;101696.75;7324139;19;20719;-37
2024/01/20 07:46:56;;;;;;;24.17;9.90;;;;;;;-0.94;100.00;101698.53;7343992;19;20187;-37
2024/01/20 07:49:26;;;;;;;28.27;11.52;;;;;;;-0.91;100.00;101706.44;7326358;19;20220;-37
2024/01/20 07:51:56;;;;;;;14.23;6.35;;;;;;;-0.91;100.00;101704.81;7348227;19;20193;-36
2024/01/20 07:54:28;;;;;;;20.60;8.65;;;;;;;-0.85;100.00;101709.59;7324789;19;20578;-37
2024/01/20 07:56:58;;;;;;;70.95;24.73;;;;;;;-0.66;100.00;101711.50;7343214;19;20699;-39
2024/01/20 07:59:29;;;;;;;26.20;10.35;;;;;;;-0.66;100.00;101724.16;7326069;19;20612;-37
2024/01/20 08:01:58;;;;;;;25.92;11.40;;;;;;;-0.58;100.00;101725.84;7354623;19;20219;-36
2024/01/20 08:04:28;;;;;;;15.38;7.07;;;;;;;-0.61;100.00;101725.53;7330116;19;20563;-38
2024/01/20 08:06:58;;;;;;;10.18;5.20;;;;;;;-0.62;100.00;101718.69;7351462;19;20209;-37
2024/01/20 08:09:30;;;;;;;20.90;11.20;;;;;;;-0.58;100.00;101730.91;7332480;19;20206;-38
2024/01/20 08:12:00;;;;;;;17.73;7.93;;;;;;;-0.58;100.00;101726.75;7354415;19;20266;-40
2024/01/20 08:14:29;;;;;;;15.93;9.05;;;;;;;-0.58;100.00;101729.28;7332631;19;20273;-35
2024/01/20 08:16:59;;;;;;;10.38;4.82;;;;;;;-0.59;100.00;101735.09;7350415;19;20195;-37
2024/01/20 08:19:28;;;;;;;14.10;5.05;;;;;;;-0.58;100.00;101731.81;7332131;19;20701;-37
2024/01/20 08:21:58;;;;;;;15.30;5.22;;;;;;;-0.56;100.00;101735.41;7353823;19;20587;-36
2024/01/20 08:24:30;;;;;;;18.52;9.02;;;;;;;-0.57;100.00;101750.44;7330417;19;20269;-37
2024/01/20 08:27:00;;;;;;;16.85;8.13;;;;;;;-0.61;100.00;101748.34;7353884;19;20192;-38
2024/01/20 08:29:30;;;;;;;15.05;8.57;;;;;;;-0.53;100.00;101751.69;7332023;19;20207;-37
2024/01/20 08:31:59;;;;;;;31.88;11.75;;;;;;;-0.46;100.00;101767.66;7353085;19;20257;-36
2024/01/20 08:34:29;;;;;;;11.20;6.05;;;;;;;-0.48;100.00;101765.72;7331807;19;20198;-37
2024/01/20 08:36:59;;;;;;;13.85;6.15;;;;;;;-0.54;100.00;101760.91;7351546;19;20196;-39
2024/01/20 08:39:31;;;;;;;17.77;9.32;;;;;;;-0.47;100.00;101765.88;7325841;19;20278;-37
2024/01/20 08:42:01;;;;;;;9.52;5.35;;;;;;;-0.40;100.00;101759.81;7353293;19;20190;-37
2024/01/20 08:44:32;;;;;;;24.15;9.73;;;;;;;-0.34;100.00;101772.19;7332505;19;20212;-39
2024/01/20 08:47:02;;;;;;;10.10;6.50;;;;;;;-0.36;100.00;101783.84;7352389;19;20631;-37
2024/01/20 08:49:31;;;;;;;16.95;7.70;;;;;;;-0.29;100.00;101776.09;7330989;19;20226;-37
2024/01/20 08:52:01;;;;;;;12.70;5.15;;;;;;;-0.30;100.00;101790.41;7353056;19;20190;-38
2024/01/20 08:54:33;;;;;;;28.42;12.55;;;;;;;-0.20;100.00;101792.25;7332140;19;20190;-36
2024/01/20 08:57:03;;;;;;;21.45;8.52;;;;;;;-0.19;100.00;101798.22;7351369;19;20194;-39
2024/01/20 08:59:32;;;;;;;24.88;12.00;;;;;;;-0.16;100.00;101804.50;7331109;19;20223;-38
2024/01/20 09:02:03;;;;;;;18.65;7.25;;;;;;;-0.15;100.00;101811.38;7350279;19;20691;-39
2024/01/20 09:04:34;;;;;;;10.05;3.75;;;;;;;-0.15;100.00;101801.22;7328707;19;20201;-39
2024/01/20 09:07:04;;;;;;;25.23;9.32;;;;;;;-0.10;100.00;101803.34;7353500;19;20205;-37
2024/01/20 09:09:36;;;;;;;18.15;8.02;;;;;;;-0.08;100.00;101806.94;7329784;19;20194;-38
2024/01/20 09:12:07;;;;;;;16.10;7.07;;;;;;;-0.08;100.00;101824.69;7349980;19;20287;-39
2024/01/20 09:14:36;;;;;;;26.40;8.73;;;;;;;-0.08;100.00;101822.16;7331793;19;20203;-37
2024/01/20 09:17:06;;;;;;;20.65;7.07;;;;;;;-0.01;100.00;101829.66;7351114;19;20190;-37
2024/01/20 09:19:36;;;;;;;19.95;8.20;;;;;;;0.05;100.00;101826.84;7328140;19;20253;-43
2024/01/20 09:22:06;;;;;;;33.47;13.27;;;;;;;0.17;100.00;101824.66;7351417;19;20231;-38
2024/01/20 09:24:39;;;;;;;21.77;8.35;;;;;;;0.25;100.00;101829.75;7327769;19;20209;-37
2024/01/20 09:27:08;;;;;;;20.20;7.30;;;;;;;0.27;100.00;101827.38;7352630;19;20258;-37
2024/01/20 09:29:38;;;;;;;41.25;12.68;;;;;;;0.39;100.00;101840.38;7330311;19;20325;-37
2024/01/20 09:32:10;;;;;;;25.40;8.00;;;;;;;0.49;100.00;101849.81;7352207;19;20217;-38
2024/01/20 09:34:42;;;;;;;20.15;4.97;;;;;;;0.48;100.00;101850.56;7331108;19;20596;-36
2024/01/20 09:37:13;;;;;;;29.43;9.27;;;;;;;0.59;100.00;101847.47;7351060;19;20684;-37
2024/01/20 09:39:45;;;;;;;41.43;11.90;;;;;;;0.51;100.00;101853.44;7328622;19;20789;-37
2024/01/20 09:42:15;;;;;;;28.42;9.23;;;;;;;0.54;100.00;101853.72;7352399;19;20453;-38
2024/01/20 09:44:45;;;;;;;31.13;10.70;;;;;;;0.67;100.00;101859.28;7331439;19;20199;-36
2024/01/20 09:47:15;;;;;;;20.40;7.60;;;;;;;0.74;100.00;101859.88;7351141;19;20431;-37
2024/01/20 09:49:44;;;;;;;22.77;7.97;;;;;;;0.76;100.00;101876.19;7329793;19;21211;-37
2024/01/20 09:52:17;;;;;;;11.48;4.60;;;;;;;0.79;100.00;101871.41;7351564;19;20453;-37
2024/01/20 09:54:56;;;;;;;26.87;6.67;;;;;;;0.77;100.00;101875.47;7331405;19;20567;-38
2024/01/20 09:57:26;;;;;;;36.43;9.80;;;;;;;0.85;100.00;101874.56;7328144;19;20424;-37
2024/01/20 09:59:57;;;;;;;20.63;6.50;;;;;;;0.84;100.00;101882.94;7351932;19;20458;-37
2024/01/20 10:02:28;;;;;;;25.83;9.07;;;;;;;1.07;100.00;101872.50;7329159;19;20835;-38
2024/01/20 10:05:01;;;;;;;17.07;6.77;;;;;;;1.04;100.00;101874.72;7349315;19;20415;-38
2024/01/20 10:07:31;;;;;;;26.33;7.97;;;;;;;0.99;100.00;101888.66;7329079;19;20430;-37
2024/01/20 10:10:03;;;;;;;34.63;10.23;;;;;;;0.96;100.00;101884.91;7349924;19;20426;-36
2024/01/20 10:12:32;;;;;;;29.37;7.40;;;;;;;0.94;100.00;101888.16;7326177;19;20430;-37
2024/01/20 10:15:03;;;;;;;17.57;6.83;;;;;;;0.96;100.00;101895.94;7350227;19;20427;-37
2024/01/20 10:17:41;;;;;;;14.90;7.60;;;;;;;0.91;100.00;101892.97;7327417;19;20513;-35
2024/01/20 10:20:11;;;;;;;15.33;6.63;;;;;;;0.88;100.00;101897.72;7330337;19;20490;-36
2024/01/20 10:22:41;;;;;;;28.60;8.63;;;;;;;1.03;100.00;101888.19;7326920;19;20815;-36
2024/01/20 10:25:18;;;;;;;9.63;4.30;;;;;;;1.07;100.00;101890.28;7345214;19;20427;-39
2024/01/20 10:27:49;;;;;;;23.33;6.67;;;;;;;0.97;100.00;101899.41;7330037;19;20404;-37
2024/01/20 10:30:20;;;;;;;13.13;5.20;;;;;;;0.96;100.00;101903.56;7349522;19;20423;-37
2024/01/20 10:32:50;;;;;;;20.70;7.60;;;;;;;1.00;100.00;101917.47;7331213;19;20388;-36
2024/01/20 10:35:23;;;;;;;11.53;4.53;;;;;;;1.00;100.00;101922.56;7349773;19;20443;-35
2024/01/20 10:37:52;;;;;;;17.70;7.30;;;;;;;0.96;100.00;101915.41;7349918;19;20435;-37
2024/01/20 10:40:24;;;;;;;15.90;5.47;;;;;;;1.03;100.00;101912.72;7349730;19;20515;-41
2024/01/20 10:42:57;;;;;;;17.53;5.07;;;;;;;1.07;100.00;101909.72;7330593;19;20494;-38
2024/01/20 10:45:27;;;;;;;19.27;6.97;;;;;;;1.13;100.00;101911.97;7328683;19;20785;-38
2024/01/20 10:48:04;;;;;;;27.23;9.63;;;;;;;1.26;100.00;101909.88;7350644;19;20772;-37
2024/01/20 10:50:38;;;;;;;21.70;9.00;;;;;;;1.32;100.00;101909.56;7327955;19;20439;-37
2024/01/20 10:53:07;;;;;;;16.90;6.40;;;;;;;1.32;100.00;101909.56;7349760;19;20797;-38
2024/01/20 10:55:41;;;;;;;15.23;6.33;;;;;;;1.29;100.00;101912.72;7328711;19;20498;-37
2024/01/20 10:58:11;;;;;;;13.10;4.47;;;;;;;1.38;100.00;101917.81;7349332;19;20445;-37
2024/01/20 11:00:41;;;;;;;14.47;6.07;;;;;;;1.39;100.00;101921.25;7327731;19;20435;-36
2024/01/20 11:03:11;;;;;;;20.00;6.10;;;;;;;1.37;100.00;101918.56;7349873;19;20463;-37
2024/01/20 11:05:41;;;;;;;24.27;7.37;;;;;;;1.28;100.00;101925.31;7326389;19;20419;-36
2024/01/20 11:08:11;;;;;;;17.73;6.20;;;;;;;1.25;100.00;101925.91;7349287;19;20434;-38
2024/01/20 11:10:44;;;;;;;24.03;6.40;;;;;;;1.26;100.00;101936.94;7327633;19;20447;-37
2024/01/20 11:13:18;;;;;;;22.23;6.40;;;;;;;1.14;100.00;101932.47;7349665;19;20508;-36
2024/01/20 11:15:52;;;;;;;16.60;6.20;;;;;;;1.25;100.00;101920.81;7328609;19;20378;-38
2024/01/20 11:18:22;;;;;;;23.90;9.20;;;;;;;1.31;100.00;101936.69;7349655;19;20439;-37
2024/01/20 11:20:56;;;;;;;13.30;5.70;;;;;;;1.23;100.00;101931.56;7328448;19;20955;-39
2024/01/20 11:23:26;;;;;;;20.80;6.23;;;;;;;1.26;100.00;101926.78;7328294;19;20459;-37
2024/01/20 11:25:59;;;;;;;17.17;6.83;;;;;;;1.27;100.00;101924.41;7349882;19;20818;-37
2024/01/20 11:28:33;;;;;;;24.90;8.97;;;;;;;1.29;100.00;101922.88;7327689;19;20466;-36